createdAt,value
2018-09-30T00:00:39.421Z,6.27
2018-09-30T00:03:07.203Z,5.47
2018-09-30T00:05:34.925Z,5.57
2018-09-30T00:08:02.791Z,6.00
2018-09-30T00:10:30.562Z,5.30
2018-09-30T00:12:58.291Z,5.93
2018-09-30T00:15:26.007Z,5.80
2018-09-30T00:17:54.086Z,5.47
2018-09-30T00:20:21.834Z,5.10
2018-09-30T00:22:49.645Z,5.00
2018-09-30T00:25:22.962Z,5.60
2018-09-30T00:27:50.705Z,5.43
2018-09-30T00:30:18.433Z,5.20
2018-09-30T00:32:46.151Z,4.60
2018-09-30T00:35:13.902Z,4.77
2018-09-30T00:37:41.622Z,5.00
2018-09-30T00:40:09.395Z,5.00
2018-09-30T00:42:37.162Z,4.53
2018-09-30T00:45:04.910Z,4.83
2018-09-30T00:47:32.630Z,4.07
2018-09-30T00:50:00.542Z,4.00
2018-09-30T00:52:28.280Z,4.10
2018-09-30T00:54:56.015Z,3.97
2018-09-30T00:57:23.728Z,4.10
2018-09-30T00:59:51.485Z,4.27
2018-09-30T01:02:19.209Z,4.73
2018-09-30T01:04:46.925Z,4.00
2018-09-30T01:07:14.662Z,3.93
2018-09-30T01:09:42.392Z,3.87
2018-09-30T01:12:10.220Z,3.97
2018-09-30T01:14:37.940Z,3.70
2018-09-30T01:17:06.011Z,3.80
2018-09-30T01:19:33.738Z,3.70
2018-09-30T01:22:01.470Z,3.80
2018-09-30T01:24:29.198Z,3.80
2018-09-30T01:26:56.929Z,3.80
2018-09-30T01:29:24.665Z,3.90
2018-09-30T01:31:52.381Z,3.67
2018-09-30T01:34:20.105Z,3.17
2018-09-30T01:36:47.930Z,3.60
2018-09-30T01:39:15.782Z,3.90
2018-09-30T01:41:43.536Z,3.33
2018-09-30T01:44:11.265Z,3.60
2018-09-30T01:46:39.077Z,4.10
2018-09-30T01:49:06.836Z,4.30
2018-09-30T01:51:34.553Z,3.77
2018-09-30T01:54:02.285Z,4.20
2018-09-30T01:56:30.054Z,4.00
2018-09-30T01:58:57.900Z,4.93
2018-09-30T02:01:25.662Z,4.97
2018-09-30T02:03:53.390Z,4.20
2018-09-30T02:06:21.150Z,5.10
2018-09-30T02:08:48.907Z,5.50
2018-09-30T02:11:16.727Z,5.37
2018-09-30T02:13:44.474Z,5.43
2018-09-30T02:16:12.200Z,5.27
2018-09-30T02:18:39.930Z,6.00
2018-09-30T02:21:07.633Z,5.47
2018-09-30T02:23:35.346Z,5.57
2018-09-30T02:26:03.087Z,6.30
2018-09-30T02:28:30.827Z,6.13
2018-09-30T02:30:58.592Z,5.77
2018-09-30T02:33:29.900Z,6.90
2018-09-30T02:35:57.631Z,7.23
2018-09-30T02:38:25.353Z,6.63
2018-09-30T02:40:53.075Z,7.60
2018-09-30T02:43:20.788Z,7.47
2018-09-30T02:45:48.838Z,7.10
2018-09-30T02:48:16.583Z,7.20
2018-09-30T02:50:44.296Z,7.67
2018-09-30T02:53:12.035Z,7.93
2018-09-30T02:55:39.751Z,9.07
2018-09-30T02:58:08.013Z,10.83
2018-09-30T03:00:35.753Z,12.83
2018-09-30T03:03:03.716Z,16.70
2018-09-30T03:05:31.466Z,17.50
2018-09-30T03:08:04.598Z,10.40
2018-09-30T03:10:32.386Z,12.57
2018-09-30T03:13:00.135Z,15.50
2018-09-30T03:15:27.854Z,15.23
2018-09-30T03:17:55.565Z,13.67
2018-09-30T03:20:23.317Z,13.67
2018-09-30T03:22:51.030Z,13.73
2018-09-30T03:25:18.772Z,14.07
2018-09-30T03:27:46.494Z,13.97
2018-09-30T03:30:14.229Z,11.80
2018-09-30T03:32:41.966Z,11.53
2018-09-30T03:35:09.718Z,12.83
2018-09-30T03:37:37.486Z,11.47
2018-09-30T03:40:05.443Z,13.30
2018-09-30T03:42:33.170Z,10.40
2018-09-30T03:45:00.881Z,8.87
2018-09-30T03:47:28.614Z,10.00
2018-09-30T03:49:56.322Z,8.17
2018-09-30T03:52:24.050Z,7.87
2018-09-30T03:54:51.806Z,7.27
2018-09-30T03:57:19.605Z,9.13
2018-09-30T03:59:47.361Z,7.70
2018-09-30T04:02:15.087Z,6.97
2018-09-30T04:04:42.794Z,6.67
2018-09-30T04:07:10.558Z,6.77
2018-09-30T04:09:38.394Z,8.00
2018-09-30T04:12:06.104Z,8.20
2018-09-30T04:14:33.843Z,7.87
2018-09-30T04:17:01.630Z,7.27
2018-09-30T04:19:29.304Z,8.37
2018-09-30T04:21:57.085Z,8.23
2018-09-30T04:24:24.791Z,8.90
2018-09-30T04:26:52.534Z,8.10
2018-09-30T04:29:20.294Z,9.07
2018-09-30T04:31:47.997Z,10.23
2018-09-30T04:34:15.714Z,10.97
2018-09-30T04:36:43.442Z,8.17
2018-09-30T04:39:11.170Z,8.23
2018-09-30T04:41:38.887Z,8.40
2018-09-30T04:44:06.629Z,8.13
2018-09-30T04:46:34.417Z,7.60
2018-09-30T04:49:02.133Z,8.37
2018-09-30T04:51:29.854Z,7.87
2018-09-30T04:53:57.611Z,8.77
2018-09-30T04:56:25.325Z,8.03
2018-09-30T04:58:53.046Z,8.00
2018-09-30T05:01:20.778Z,7.87
2018-09-30T05:03:48.549Z,7.77
2018-09-30T05:06:16.266Z,8.43
2018-09-30T05:08:43.990Z,8.57
2018-09-30T05:11:11.738Z,8.90
2018-09-30T05:13:39.455Z,7.87
2018-09-30T05:16:07.269Z,7.93
2018-09-30T05:18:34.938Z,7.70
2018-09-30T05:21:02.682Z,8.50
2018-09-30T05:23:30.402Z,8.33
2018-09-30T05:25:58.173Z,8.20
2018-09-30T05:28:25.886Z,7.63
2018-09-30T05:30:53.642Z,8.13
2018-09-30T05:33:21.354Z,8.30
2018-09-30T05:35:49.095Z,7.23
2018-09-30T05:38:16.843Z,8.00
2018-09-30T05:40:44.581Z,9.07
2018-09-30T05:43:12.290Z,9.00
2018-09-30T05:45:40.053Z,8.33
2018-09-30T05:48:07.911Z,8.10
2018-09-30T05:50:35.706Z,7.80
2018-09-30T05:53:03.431Z,8.37
2018-09-30T05:55:31.133Z,7.80
2018-09-30T05:57:58.947Z,8.93
2018-09-30T06:00:26.662Z,7.40
2018-09-30T06:02:54.374Z,9.10
2018-09-30T06:05:22.077Z,8.73
2018-09-30T06:07:49.790Z,8.27
2018-09-30T06:10:17.506Z,9.13
2018-09-30T06:12:45.230Z,9.00
2018-09-30T06:15:12.947Z,8.60
2018-09-30T06:17:40.718Z,8.03
2018-09-30T06:20:08.483Z,8.77
2018-09-30T06:22:36.207Z,8.70
2018-09-30T06:25:04.035Z,8.30
2018-09-30T06:27:31.774Z,8.43
2018-09-30T06:29:59.510Z,8.10
2018-09-30T06:32:27.258Z,7.97
2018-09-30T06:34:54.977Z,8.37
2018-09-30T06:37:22.725Z,7.80
2018-09-30T06:39:50.434Z,7.60
2018-09-30T06:42:18.139Z,7.47
2018-09-30T06:44:45.862Z,7.57
2018-09-30T06:47:13.580Z,7.60
2018-09-30T06:49:41.283Z,8.73
2018-09-30T06:52:09.051Z,7.10
2018-09-30T06:54:36.774Z,8.83
2018-09-30T06:57:04.514Z,7.87
2018-09-30T06:59:32.245Z,8.50
2018-09-30T07:01:59.950Z,7.90
2018-09-30T07:04:27.670Z,7.97
2018-09-30T07:06:55.379Z,7.37
2018-09-30T07:09:23.158Z,7.67
2018-09-30T07:11:51.529Z,7.83
2018-09-30T07:14:19.389Z,8.27
2018-09-30T07:16:48.165Z,7.80
2018-09-30T07:19:15.921Z,7.10
2018-09-30T07:21:43.888Z,6.53
2018-09-30T07:24:11.631Z,7.13
2018-09-30T07:26:39.344Z,7.87
2018-09-30T07:29:07.337Z,6.90
2018-09-30T07:31:35.075Z,7.83
2018-09-30T07:34:02.802Z,7.30
2018-09-30T07:36:30.668Z,8.60
2018-09-30T07:38:58.378Z,7.17
2018-09-30T07:41:26.082Z,7.43
2018-09-30T07:43:53.794Z,8.40
2018-09-30T07:46:21.537Z,6.97
2018-09-30T07:48:49.258Z,6.67
2018-09-30T07:51:16.962Z,6.93
2018-09-30T07:53:44.684Z,8.17
2018-09-30T07:56:12.403Z,7.43
2018-09-30T07:58:40.342Z,8.70
2018-09-30T08:01:09.046Z,8.57
2018-09-30T08:03:36.841Z,7.80
2018-09-30T08:06:04.574Z,8.37
2018-09-30T08:08:32.282Z,8.50
2018-09-30T08:11:00.094Z,9.13
2018-09-30T08:13:27.807Z,8.70
2018-09-30T08:15:55.526Z,8.40
2018-09-30T08:18:23.234Z,9.23
2018-09-30T08:20:51.062Z,8.03
2018-09-30T08:23:18.771Z,8.67
2018-09-30T08:25:46.489Z,9.57
2018-09-30T08:28:14.198Z,9.80
2018-09-30T08:30:42.010Z,8.93
2018-09-30T08:33:09.766Z,8.50
2018-09-30T08:35:37.493Z,8.40
2018-09-30T08:38:10.645Z,8.43
2018-09-30T08:40:43.958Z,8.13
2018-09-30T08:43:11.669Z,8.50
2018-09-30T08:45:39.885Z,7.70
2018-09-30T08:48:07.569Z,8.23
2018-09-30T08:50:35.390Z,8.50
2018-09-30T08:53:03.121Z,8.13
2018-09-30T08:55:31.046Z,7.77
2018-09-30T08:57:58.760Z,8.40
2018-09-30T09:00:27.403Z,8.33
2018-09-30T09:02:55.139Z,8.90
2018-09-30T09:05:22.838Z,8.43
2018-09-30T09:07:50.934Z,7.93
2018-09-30T09:10:18.645Z,8.10
2018-09-30T09:12:46.375Z,7.37
2018-09-30T09:15:14.100Z,8.37
2018-09-30T09:17:41.852Z,6.90
2018-09-30T09:20:09.673Z,7.40
2018-09-30T09:22:37.424Z,8.30
2018-09-30T09:25:05.827Z,7.30
2018-09-30T09:27:33.617Z,7.37
2018-09-30T09:30:01.381Z,6.80
2018-09-30T09:32:32.795Z,8.23
2018-09-30T09:35:00.530Z,7.80
2018-09-30T09:37:28.254Z,7.87
2018-09-30T09:39:56.346Z,8.57
2018-09-30T09:42:24.066Z,6.80
2018-09-30T09:44:51.806Z,7.23
2018-09-30T09:47:19.514Z,7.33
2018-09-30T09:49:47.597Z,7.47
2018-09-30T09:52:15.302Z,8.13
2018-09-30T09:54:43.038Z,7.97
2018-09-30T09:57:10.753Z,8.00
2018-09-30T09:59:38.651Z,8.57
2018-09-30T10:02:06.390Z,8.93
2018-09-30T10:04:34.118Z,8.20
2018-09-30T10:07:01.857Z,8.47
2018-09-30T10:09:29.581Z,9.60
2018-09-30T10:11:57.584Z,8.10
2018-09-30T10:14:26.383Z,7.53
2018-09-30T10:16:54.170Z,7.30
2018-09-30T10:19:22.071Z,9.03
2018-09-30T10:21:49.739Z,10.83
2018-09-30T10:24:17.651Z,11.47
2018-09-30T10:26:45.346Z,11.07
2018-09-30T10:29:13.062Z,10.40
2018-09-30T10:31:40.799Z,7.80
2018-09-30T10:34:08.602Z,7.60
2018-09-30T10:36:36.317Z,6.67
2018-09-30T10:39:06.254Z,6.77
2018-09-30T10:41:33.849Z,7.40
2018-09-30T10:44:01.578Z,7.57
2018-09-30T10:46:29.319Z,7.43
2018-09-30T10:48:57.438Z,6.70
2018-09-30T10:51:25.149Z,6.37
2018-09-30T10:53:52.861Z,7.40
2018-09-30T10:56:20.658Z,8.00
2018-09-30T10:58:48.739Z,8.03
2018-09-30T11:01:16.690Z,7.27
2018-09-30T11:03:44.433Z,6.97
2018-09-30T11:06:12.137Z,5.63
2018-09-30T11:08:39.858Z,6.97
2018-09-30T11:11:07.619Z,6.83
2018-09-30T11:13:35.321Z,7.63
2018-09-30T11:16:03.060Z,7.03
2018-09-30T11:18:30.902Z,7.70
2018-09-30T11:20:58.638Z,7.63
2018-09-30T11:23:26.381Z,7.30
2018-09-30T11:25:54.106Z,7.37
2018-09-30T11:28:21.826Z,7.50
2018-09-30T11:30:49.558Z,7.27
2018-09-30T11:33:17.348Z,6.40
2018-09-30T11:35:45.132Z,6.83
2018-09-30T11:38:12.874Z,6.83
2018-09-30T11:40:40.622Z,7.17
2018-09-30T11:43:08.395Z,6.77
2018-09-30T11:45:36.142Z,6.70
2018-09-30T11:48:04.080Z,7.17
2018-09-30T11:50:31.945Z,7.47
2018-09-30T11:52:59.758Z,6.73
2018-09-30T11:55:27.701Z,6.83
2018-09-30T11:57:56.321Z,7.23
2018-09-30T12:00:24.053Z,7.30
2018-09-30T12:02:51.783Z,7.10
2018-09-30T12:05:19.541Z,7.37
2018-09-30T12:07:47.874Z,7.50
2018-09-30T12:10:15.610Z,7.40
2018-09-30T12:12:43.309Z,6.57
2018-09-30T12:15:11.090Z,6.53
2018-09-30T12:17:38.806Z,7.40
2018-09-30T12:20:06.682Z,7.67
2018-09-30T12:22:34.474Z,7.20
2018-09-30T12:25:02.360Z,6.90
2018-09-30T12:27:30.234Z,6.50
2018-09-30T12:29:57.951Z,5.30
2018-09-30T12:32:25.671Z,6.43
2018-09-30T12:34:53.401Z,6.03
2018-09-30T12:37:21.215Z,6.27
2018-09-30T12:39:48.934Z,5.23
2018-09-30T12:42:16.646Z,6.37
2018-09-30T12:44:44.387Z,6.60
2018-09-30T12:47:12.090Z,6.70
2018-09-30T12:49:39.902Z,6.40
2018-09-30T12:52:08.466Z,6.30
2018-09-30T12:54:37.078Z,5.60
2018-09-30T12:57:04.984Z,5.13
2018-09-30T12:59:32.806Z,5.70
2018-09-30T13:02:01.310Z,6.07
2018-09-30T13:04:29.322Z,5.37
2018-09-30T13:06:57.049Z,5.60
2018-09-30T13:09:24.827Z,5.53
2018-09-30T13:11:52.572Z,5.53
2018-09-30T13:14:20.317Z,5.23
2018-09-30T13:16:48.053Z,5.83
2018-09-30T13:19:15.758Z,5.97
2018-09-30T13:21:43.488Z,6.03
2018-09-30T13:24:11.309Z,6.53
2018-09-30T13:26:39.083Z,8.23
2018-09-30T13:29:06.794Z,8.30
2018-09-30T13:31:34.531Z,6.70
2018-09-30T13:34:02.238Z,9.17
2018-09-30T13:36:29.970Z,7.97
2018-09-30T13:38:57.711Z,8.33
2018-09-30T13:41:25.492Z,8.80
2018-09-30T13:43:53.296Z,8.57
2018-09-30T13:46:21.065Z,6.60
2018-09-30T13:48:48.798Z,7.17
2018-09-30T13:51:16.572Z,7.27
2018-09-30T13:53:44.305Z,7.57
2018-09-30T13:56:12.061Z,8.93
2018-09-30T13:58:39.810Z,9.60
2018-09-30T14:01:08.014Z,10.43
2018-09-30T14:03:35.758Z,9.43
2018-09-30T14:06:03.514Z,10.27
2018-09-30T14:08:31.233Z,10.67
2018-09-30T14:10:58.954Z,11.20
2018-09-30T14:13:27.575Z,10.53
2018-09-30T14:15:55.285Z,9.83
2018-09-30T14:18:23.002Z,11.07
2018-09-30T14:20:50.738Z,10.97
2018-09-30T14:23:18.502Z,11.17
2018-09-30T14:25:46.429Z,11.63
2018-09-30T14:28:14.371Z,11.87
2018-09-30T14:30:43.114Z,11.13
2018-09-30T14:33:10.858Z,12.57
2018-09-30T14:35:39.218Z,11.33
2018-09-30T14:38:07.126Z,11.30
2018-09-30T14:40:34.897Z,12.37
2018-09-30T14:43:02.624Z,10.87
2018-09-30T14:45:31.158Z,11.53
2018-09-30T14:47:59.072Z,11.73
2018-09-30T14:50:26.816Z,11.40
2018-09-30T14:52:54.687Z,11.33
2018-09-30T14:55:22.411Z,11.27
2018-09-30T14:57:50.520Z,11.23
2018-09-30T15:00:18.234Z,11.53
2018-09-30T15:02:46.680Z,12.07
2018-09-30T15:05:14.405Z,11.83
2018-09-30T15:07:43.103Z,11.67
2018-09-30T15:10:10.831Z,11.60
2018-09-30T15:12:38.561Z,10.77
2018-09-30T15:15:07.638Z,10.17
2018-09-30T15:17:35.637Z,11.20
2018-09-30T15:20:03.455Z,10.10
2018-09-30T15:22:31.205Z,10.33
2018-09-30T15:24:59.417Z,10.43
2018-09-30T15:27:27.130Z,10.13
2018-09-30T15:29:54.990Z,10.47
2018-09-30T15:32:22.717Z,8.73
2018-09-30T15:34:50.444Z,10.53
2018-09-30T15:37:18.176Z,10.00
2018-09-30T15:39:45.916Z,9.30
2018-09-30T15:42:13.620Z,9.87
2018-09-30T15:44:41.366Z,10.03
2018-09-30T15:47:09.101Z,9.50
2018-09-30T15:49:36.853Z,8.93
2018-09-30T15:52:04.858Z,9.80
2018-09-30T15:54:32.706Z,10.70
2018-09-30T15:57:00.448Z,10.57
2018-09-30T15:59:28.177Z,9.40
2018-09-30T16:01:55.894Z,9.17
2018-09-30T16:04:23.610Z,10.53
2018-09-30T16:06:51.310Z,10.20
2018-09-30T16:09:19.033Z,10.27
2018-09-30T16:11:46.738Z,9.70
2018-09-30T16:14:14.449Z,10.00
2018-09-30T16:16:42.152Z,11.23
2018-09-30T16:19:09.873Z,12.13
2018-09-30T16:21:37.590Z,10.47
2018-09-30T16:24:05.326Z,11.23
2018-09-30T16:26:33.185Z,11.37
2018-09-30T16:29:00.938Z,11.43
2018-09-30T16:31:28.726Z,11.40
2018-09-30T16:33:56.442Z,11.50
2018-09-30T16:36:24.138Z,11.57
2018-09-30T16:38:51.903Z,11.00
2018-09-30T16:41:19.685Z,11.23
2018-09-30T16:43:47.370Z,10.27
2018-09-30T16:46:15.194Z,11.13
2018-09-30T16:48:42.942Z,12.13
2018-09-30T16:51:10.656Z,11.63
2018-09-30T16:53:38.371Z,12.80
2018-09-30T16:56:06.134Z,12.20
2018-09-30T16:58:33.846Z,11.23
2018-09-30T17:01:01.578Z,12.17
2018-09-30T17:03:29.277Z,11.97
2018-09-30T17:05:56.997Z,11.47
2018-09-30T17:08:24.969Z,10.00
2018-09-30T17:10:52.694Z,11.87
2018-09-30T17:13:20.422Z,12.13
2018-09-30T17:15:48.215Z,13.00
2018-09-30T17:18:15.934Z,11.97
2018-09-30T17:20:43.902Z,12.43
2018-09-30T17:23:11.702Z,11.53
2018-09-30T17:25:39.559Z,11.17
2018-09-30T17:28:07.354Z,9.67
2018-09-30T17:30:35.150Z,10.73
2018-09-30T17:33:02.955Z,9.80
2018-09-30T17:35:30.795Z,11.20
2018-09-30T17:37:58.676Z,10.33
2018-09-30T17:40:26.408Z,10.23
2018-09-30T17:42:54.299Z,10.90
2018-09-30T17:45:22.169Z,10.80
2018-09-30T17:47:49.963Z,9.90
2018-09-30T17:50:17.754Z,9.50
2018-09-30T17:52:45.590Z,9.07
2018-09-30T17:55:13.356Z,8.70
2018-09-30T17:57:41.119Z,10.13
2018-09-30T18:00:08.994Z,8.97
2018-09-30T18:02:36.802Z,9.40
2018-09-30T18:05:04.902Z,8.83
2018-09-30T18:07:32.977Z,8.90
2018-09-30T18:10:00.903Z,8.90
2018-09-30T18:12:28.729Z,9.40
2018-09-30T18:14:56.573Z,9.47
2018-09-30T18:17:24.401Z,10.07
2018-09-30T18:19:52.214Z,9.87
2018-09-30T18:22:20.425Z,10.17
2018-09-30T18:24:48.263Z,10.17
2018-09-30T18:27:16.154Z,9.80
2018-09-30T18:29:43.974Z,9.07
2018-09-30T18:32:11.793Z,10.00
2018-09-30T18:34:39.501Z,9.57
2018-09-30T18:37:07.317Z,9.50
2018-09-30T18:39:35.097Z,7.57
2018-09-30T18:42:02.958Z,8.73
2018-09-30T18:44:30.809Z,7.17
2018-09-30T18:46:58.588Z,7.27
2018-09-30T18:49:26.343Z,7.37
2018-09-30T18:51:54.090Z,7.93
2018-09-30T18:54:21.833Z,7.37
2018-09-30T18:56:49.790Z,7.57
2018-09-30T18:59:17.579Z,7.23
2018-09-30T19:01:45.525Z,7.50
2018-09-30T19:04:13.323Z,7.73
2018-09-30T19:06:41.237Z,7.67
2018-09-30T19:09:09.390Z,7.60
2018-09-30T19:11:37.141Z,7.90
2018-09-30T19:14:05.406Z,6.67
2018-09-30T19:16:33.566Z,7.23
2018-09-30T19:19:01.447Z,6.83
2018-09-30T19:21:29.484Z,6.37
2018-09-30T19:23:57.662Z,6.67
2018-09-30T19:26:25.370Z,6.17
2018-09-30T19:28:53.082Z,6.03
2018-09-30T19:31:20.800Z,7.17
2018-09-30T19:33:48.517Z,7.80
2018-09-30T19:36:16.408Z,7.20
2018-09-30T19:38:44.094Z,7.10
2018-09-30T19:41:11.814Z,7.23
2018-09-30T19:43:39.526Z,7.43
2018-09-30T19:46:07.767Z,6.97
2018-09-30T19:48:35.528Z,7.00
2018-09-30T19:51:03.662Z,7.53
2018-09-30T19:53:31.607Z,6.77
2018-09-30T19:55:59.339Z,7.13
2018-09-30T19:58:27.069Z,7.30
2018-09-30T20:00:54.852Z,6.63
2018-09-30T20:03:22.561Z,6.17
2018-09-30T20:05:50.277Z,6.13
2018-09-30T20:08:17.994Z,7.50
2018-09-30T20:10:45.709Z,6.70
2018-09-30T20:13:13.783Z,6.97
2018-09-30T20:15:41.618Z,7.13
2018-09-30T20:18:09.355Z,7.20
2018-09-30T20:20:37.240Z,7.20
2018-09-30T20:23:05.110Z,7.53
2018-09-30T20:25:32.999Z,7.37
2018-09-30T20:28:00.771Z,7.43
2018-09-30T20:30:28.667Z,6.53
2018-09-30T20:32:56.466Z,7.63
2018-09-30T20:35:24.221Z,6.97
2018-09-30T20:37:52.117Z,7.47
2018-09-30T20:40:19.881Z,6.77
2018-09-30T20:42:47.709Z,7.30
2018-09-30T20:45:15.510Z,7.17
2018-09-30T20:47:43.387Z,6.27
2018-09-30T20:50:11.149Z,6.67
2018-09-30T20:52:39.021Z,6.40
2018-09-30T20:55:06.905Z,6.20
2018-09-30T20:57:37.709Z,6.40
2018-09-30T21:00:05.670Z,6.33
2018-09-30T21:02:33.377Z,7.33
2018-09-30T21:05:12.486Z,6.20
2018-09-30T21:07:40.164Z,5.90
2018-09-30T21:10:07.943Z,5.87
2018-09-30T21:12:35.715Z,6.67
2018-09-30T21:15:03.470Z,6.87
2018-09-30T21:17:31.193Z,6.50
2018-09-30T21:19:58.903Z,6.77
2018-09-30T21:22:26.622Z,6.97
2018-09-30T21:24:54.338Z,6.50
2018-09-30T21:27:22.094Z,6.10
2018-09-30T21:29:49.814Z,7.17
2018-09-30T21:32:17.534Z,6.90
2018-09-30T21:34:45.311Z,6.33
2018-09-30T21:37:13.045Z,7.37
2018-09-30T21:39:40.779Z,7.33
2018-09-30T21:42:08.489Z,7.47
2018-09-30T21:44:36.215Z,7.23
2018-09-30T21:47:03.943Z,7.20
2018-09-30T21:49:31.667Z,7.77
2018-09-30T21:51:59.402Z,6.90
2018-09-30T21:54:27.134Z,6.93
2018-09-30T21:56:54.848Z,7.13
2018-09-30T21:59:22.557Z,7.00
2018-09-30T22:01:50.341Z,6.87
2018-09-30T22:04:18.026Z,7.23
2018-09-30T22:06:45.835Z,7.07
2018-09-30T22:09:13.542Z,7.23
2018-09-30T22:11:41.309Z,6.70
2018-09-30T22:14:09.139Z,6.63
2018-09-30T22:16:36.878Z,6.33
2018-09-30T22:19:04.642Z,6.53
2018-09-30T22:21:32.365Z,6.27
2018-09-30T22:24:00.075Z,5.67
2018-09-30T22:26:27.802Z,6.80
2018-09-30T22:28:55.546Z,6.10
2018-09-30T22:31:23.302Z,7.10
2018-09-30T22:33:51.036Z,5.70
2018-09-30T22:36:18.769Z,6.37
2018-09-30T22:38:46.534Z,6.13
2018-09-30T22:41:14.254Z,5.70
2018-09-30T22:43:41.972Z,5.93
2018-09-30T22:46:09.691Z,5.87
2018-09-30T22:48:37.406Z,5.67
2018-09-30T22:51:05.115Z,5.90
2018-09-30T22:53:32.862Z,5.53
2018-09-30T22:56:00.582Z,4.93
2018-09-30T22:58:28.292Z,5.13
2018-09-30T23:00:55.993Z,5.50
2018-09-30T23:03:23.702Z,5.27
2018-09-30T23:05:51.416Z,5.17
2018-09-30T23:08:19.214Z,5.80
2018-09-30T23:10:46.982Z,5.10
2018-09-30T23:13:14.702Z,5.57
2018-09-30T23:15:42.431Z,5.03
2018-09-30T23:18:10.157Z,5.23
2018-09-30T23:20:37.858Z,4.30
2018-09-30T23:23:05.626Z,4.77
2018-09-30T23:25:33.346Z,4.83
2018-09-30T23:28:01.047Z,4.77
2018-09-30T23:30:28.795Z,4.43
2018-09-30T23:32:56.504Z,4.37
2018-09-30T23:35:24.218Z,4.97
2018-09-30T23:37:51.949Z,4.60
2018-09-30T23:40:19.681Z,4.97
2018-09-30T23:42:47.431Z,4.17
2018-09-30T23:45:15.172Z,4.13
2018-09-30T23:47:42.886Z,4.33
2018-09-30T23:50:10.619Z,4.80
2018-09-30T23:52:38.402Z,3.93
2018-09-30T23:55:06.219Z,4.60
2018-09-30T23:57:33.930Z,3.57
